createdAt,value
2018-10-07T00:04:55.886Z,12.7
2018-10-07T00:14:55.099Z,12.8
2018-10-07T00:24:54.323Z,13.1
2018-10-07T00:34:53.545Z,13.2
2018-10-07T00:44:52.766Z,12.8
2018-10-07T00:54:51.988Z,13
2018-10-07T01:04:51.212Z,12.5
2018-10-07T01:14:50.438Z,13
2018-10-07T01:24:49.662Z,12.7
2018-10-07T01:34:48.876Z,12.7
2018-10-07T01:44:48.103Z,12.9
2018-10-07T01:54:47.324Z,13.2
2018-10-07T02:04:46.543Z,12.7
2018-10-07T02:14:45.761Z,12.8
2018-10-07T02:24:44.988Z,13
2018-10-07T02:34:44.204Z,13.2
2018-10-07T02:44:43.424Z,12.7
2018-10-07T02:54:42.652Z,13.2
2018-10-07T03:04:41.992Z,13.1
2018-10-07T03:14:41.093Z,13.2
2018-10-07T03:24:40.309Z,13.1
2018-10-07T03:34:39.530Z,12.5
2018-10-07T03:44:38.764Z,13.1
2018-10-07T03:54:37.978Z,12.8
2018-10-07T04:04:37.199Z,13.2
2018-10-07T04:14:36.414Z,12.6
2018-10-07T04:24:35.736Z,13.1
2018-10-07T04:34:34.863Z,12.8
2018-10-07T04:44:34.084Z,12.8
2018-10-07T04:54:33.307Z,13.1
2018-10-07T05:04:32.528Z,12.7
2018-10-07T05:14:31.754Z,12.7
2018-10-07T05:24:30.972Z,14.3
2018-10-07T05:34:30.200Z,14.2
2018-10-07T05:44:29.607Z,13.9
2018-10-07T05:54:28.635Z,13.9
2018-10-07T06:04:27.857Z,14.7
2018-10-07T06:14:27.079Z,14.4
2018-10-07T06:24:26.302Z,14
2018-10-07T06:34:25.522Z,14.5
2018-10-07T06:44:24.746Z,14.7
2018-10-07T06:54:23.969Z,14.6
2018-10-07T07:04:23.191Z,14.2
2018-10-07T07:14:22.410Z,14.2
2018-10-07T07:24:21.638Z,13.9
2018-10-07T07:34:20.869Z,14.3
2018-10-07T07:44:20.086Z,14.7
2018-10-07T07:54:19.306Z,14.5
2018-10-07T08:04:18.531Z,14.7
2018-10-07T08:14:17.754Z,14.7
2018-10-07T08:24:16.978Z,13.9
2018-10-07T08:34:16.196Z,13.9
2018-10-07T08:44:15.418Z,14
2018-10-07T08:54:14.640Z,14.4
2018-10-07T09:04:13.864Z,14.2
2018-10-07T09:14:13.092Z,14.4
2018-10-07T09:24:12.315Z,14.2
2018-10-07T09:34:11.538Z,13.8
2018-10-07T09:44:10.755Z,14.4
2018-10-07T09:54:09.985Z,14.5
2018-10-07T10:04:09.218Z,14.2
2018-10-07T10:14:08.479Z,14.2
2018-10-07T10:24:07.646Z,14.5
2018-10-07T10:34:06.873Z,14
2018-10-07T10:44:06.090Z,14.1
2018-10-07T10:54:05.312Z,14.1
2018-10-07T11:04:04.538Z,13.9
2018-10-07T11:14:03.768Z,14.1
2018-10-07T11:24:02.978Z,13.9
2018-10-07T11:34:02.203Z,13.9
2018-10-07T11:44:01.429Z,14.6
2018-10-07T11:54:00.652Z,14.2
2018-10-07T12:03:59.890Z,14
2018-10-07T12:13:59.113Z,14.3
2018-10-07T12:23:58.333Z,13.8
2018-10-07T12:33:57.554Z,13.4
2018-10-07T12:43:56.771Z,13.2
2018-10-07T12:53:55.995Z,13
2018-10-07T13:03:55.339Z,13.7
2018-10-07T13:13:54.434Z,13.5
2018-10-07T13:23:53.660Z,13.5
2018-10-07T13:33:52.876Z,12.8
2018-10-07T13:43:52.097Z,13.4
2018-10-07T13:53:51.322Z,13.3
2018-10-07T14:03:50.583Z,12.5
2018-10-07T14:13:49.765Z,13.1
2018-10-07T14:23:49.039Z,13
2018-10-07T14:33:48.204Z,12.7
2018-10-07T14:43:47.420Z,12.5
2018-10-07T14:53:46.651Z,13.2
2018-10-07T15:03:45.870Z,12.5
2018-10-07T15:13:45.089Z,13.1
2018-10-07T15:23:44.384Z,12.6
2018-10-07T15:33:43.590Z,12.6
2018-10-07T15:43:42.746Z,12.9
2018-10-07T15:53:41.993Z,12.6
2018-10-07T16:03:41.190Z,13.1
2018-10-07T16:13:40.407Z,13
2018-10-07T16:23:39.634Z,12.7
2018-10-07T16:33:38.951Z,12.6
2018-10-07T16:43:38.077Z,12.9
2018-10-07T16:53:37.310Z,12.9
2018-10-07T17:03:36.523Z,12.7
2018-10-07T17:13:35.753Z,12.8
2018-10-07T17:23:34.981Z,12.4
2018-10-07T17:33:34.196Z,13
2018-10-07T17:43:33.424Z,12.5
2018-10-07T17:53:32.649Z,12.7
2018-10-07T18:03:31.870Z,12.9
2018-10-07T18:13:31.088Z,13
2018-10-07T18:23:30.316Z,12.4
2018-10-07T18:33:29.539Z,12.6
2018-10-07T18:43:28.765Z,12.9
2018-10-07T18:53:27.988Z,12.5
2018-10-07T19:03:27.212Z,13.2
2018-10-07T19:13:26.411Z,13.1
2018-10-07T19:23:25.648Z,12.5
2018-10-07T19:33:24.869Z,12.8
2018-10-07T19:43:24.089Z,12.9
2018-10-07T19:53:23.319Z,13.2
2018-10-07T20:03:22.539Z,13.1
2018-10-07T20:13:21.798Z,12.8
2018-10-07T20:23:20.985Z,13
2018-10-07T20:33:20.207Z,12.4
2018-10-07T20:43:19.439Z,13.2
2018-10-07T20:53:18.654Z,13.2
2018-10-07T21:03:17.877Z,13.2
2018-10-07T21:13:17.108Z,13.1
2018-10-07T21:23:16.328Z,13
2018-10-07T21:33:15.551Z,12.7
2018-10-07T21:43:14.778Z,13.1
2018-10-07T21:53:14.003Z,13
2018-10-07T22:03:13.220Z,13.1
2018-10-07T22:13:12.448Z,13
2018-10-07T22:23:11.670Z,12.9
2018-10-07T22:33:10.891Z,12.5
2018-10-07T22:43:10.121Z,12.7
2018-10-07T22:53:09.339Z,12.8
2018-10-07T23:03:08.556Z,12.9
2018-10-07T23:13:07.786Z,12.9
2018-10-07T23:23:07.005Z,13.2
2018-10-07T23:33:06.230Z,12.7
2018-10-07T23:43:05.452Z,13.1
2018-10-07T23:53:04.722Z,12.6
